sensor_id;sensor_type;location;lat;lon;timestamp;temperature;humidity
16728;DHT22;8482;54.396;18.590;2023-04-10T18:20:47;10.50;99.90
16728;DHT22;8482;54.396;18.590;2023-04-10T18:23:13;10.40;99.90
16728;DHT22;8482;54.396;18.590;2023-04-10T18:25:39;10.30;99.90
16728;DHT22;8482;54.396;18.590;2023-04-10T18:28:05;10.30;99.90
16728;DHT22;8482;54.396;18.590;2023-04-10T18:30:33;10.20;99.90
16728;DHT22;8482;54.396;18.590;2023-04-10T18:33:03;10.20;99.90
16728;DHT22;8482;54.396;18.590;2023-04-10T18:35:31;10.20;99.90
16728;DHT22;8482;54.396;18.590;2023-04-10T18:37:56;10.10;99.90
16728;DHT22;8482;54.396;18.590;2023-04-10T18:40:23;10.10;99.90
16728;DHT22;8482;54.396;18.590;2023-04-10T18:42:49;10.00;99.90
16728;DHT22;8482;54.396;18.590;2023-04-10T18:45:18;10.00;99.90
16728;DHT22;8482;54.396;18.590;2023-04-10T18:47:44;10.00;99.90
16728;DHT22;8482;54.396;18.590;2023-04-10T18:50:13;9.90;99.90
16728;DHT22;8482;54.396;18.590;2023-04-10T18:52:39;9.90;99.90
16728;DHT22;8482;54.396;18.590;2023-04-10T18:55:05;9.90;99.90
16728;DHT22;8482;54.396;18.590;2023-04-10T18:57:31;9.90;99.90
16728;DHT22;8482;54.396;18.590;2023-04-10T18:59:57;9.90;99.90
16728;DHT22;8482;54.396;18.590;2023-04-10T19:02:23;9.90;99.90
16728;DHT22;8482;54.396;18.590;2023-04-10T19:04:49;9.80;99.90
16728;DHT22;8482;54.396;18.590;2023-04-10T19:07:15;9.80;99.90
16728;DHT22;8482;54.396;18.590;2023-04-10T19:09:41;9.80;99.90
16728;DHT22;8482;54.396;18.590;2023-04-10T19:12:07;9.80;99.90
16728;DHT22;8482;54.396;18.590;2023-04-10T19:14:34;9.80;99.90
16728;DHT22;8482;54.396;18.590;2023-04-10T19:17:03;9.70;99.90
16728;DHT22;8482;54.396;18.590;2023-04-10T19:19:33;9.70;99.90
16728;DHT22;8482;54.396;18.590;2023-04-10T19:22:02;9.70;99.90
16728;DHT22;8482;54.396;18.590;2023-04-10T19:24:30;9.60;99.90
16728;DHT22;8482;54.396;18.590;2023-04-10T19:26:59;9.60;99.90
16728;DHT22;8482;54.396;18.590;2023-04-10T19:29:30;9.60;99.90
16728;DHT22;8482;54.396;18.590;2023-04-10T19:31:59;9.60;99.90
16728;DHT22;8482;54.396;18.590;2023-04-10T19:34:25;9.50;99.90
16728;DHT22;8482;54.396;18.590;2023-04-10T19:36:51;9.50;99.90
16728;DHT22;8482;54.396;18.590;2023-04-10T19:39:16;9.50;99.90
16728;DHT22;8482;54.396;18.590;2023-04-10T19:41:48;9.40;99.90
16728;DHT22;8482;54.396;18.590;2023-04-10T19:44:14;9.40;99.90
16728;DHT22;8482;54.396;18.590;2023-04-10T19:46:40;9.40;99.90
16728;DHT22;8482;54.396;18.590;2023-04-10T19:49:06;9.30;99.90
16728;DHT22;8482;54.396;18.590;2023-04-10T19:51:32;9.30;99.90
16728;DHT22;8482;54.396;18.590;2023-04-10T19:53:58;9.30;99.90
16728;DHT22;8482;54.396;18.590;2023-04-10T19:56:24;9.20;99.90
16728;DHT22;8482;54.396;18.590;2023-04-10T19:58:52;9.20;99.90
16728;DHT22;8482;54.396;18.590;2023-04-10T20:01:18;9.10;99.90
16728;DHT22;8482;54.396;18.590;2023-04-10T20:03:44;9.00;99.90
16728;DHT22;8482;54.396;18.590;2023-04-10T20:06:10;9.00;99.90
16728;DHT22;8482;54.396;18.590;2023-04-10T20:08:36;9.00;99.90
16728;DHT22;8482;54.396;18.590;2023-04-10T20:11:02;8.90;99.90
16728;DHT22;8482;54.396;18.590;2023-04-10T20:13:31;8.90;99.90
16728;DHT22;8482;54.396;18.590;2023-04-10T20:15:58;8.80;99.90
16728;DHT22;8482;54.396;18.590;2023-04-10T20:18:24;8.80;99.90
16728;DHT22;8482;54.396;18.590;2023-04-10T20:20:50;8.80;99.90
16728;DHT22;8482;54.396;18.590;2023-04-10T20:23:16;8.80;99.90
16728;DHT22;8482;54.396;18.590;2023-04-10T20:25:42;8.80;99.90
16728;DHT22;8482;54.396;18.590;2023-04-10T20:28:08;8.80;99.90
16728;DHT22;8482;54.396;18.590;2023-04-10T20:30:34;8.80;99.90
16728;DHT22;8482;54.396;18.590;2023-04-10T20:33:03;8.80;99.90
16728;DHT22;8482;54.396;18.590;2023-04-10T20:35:29;8.80;99.90
16728;DHT22;8482;54.396;18.590;2023-04-10T20:37:55;8.70;99.90
16728;DHT22;8482;54.396;18.590;2023-04-10T20:40:21;8.70;99.90
16728;DHT22;8482;54.396;18.590;2023-04-10T20:42:47;8.80;99.90
16728;DHT22;8482;54.396;18.590;2023-04-10T20:45:13;8.80;99.90
16728;DHT22;8482;54.396;18.590;2023-04-10T20:47:40;8.80;99.90
16728;DHT22;8482;54.396;18.590;2023-04-10T20:50:06;8.70;99.90
16728;DHT22;8482;54.396;18.590;2023-04-10T20:52:32;8.70;99.90
16728;DHT22;8482;54.396;18.590;2023-04-10T20:54:58;8.70;99.90
16728;DHT22;8482;54.396;18.590;2023-04-10T20:57:29;8.70;99.90
16728;DHT22;8482;54.396;18.590;2023-04-10T20:59:55;8.70;99.90
16728;DHT22;8482;54.396;18.590;2023-04-10T21:02:20;8.70;99.90
16728;DHT22;8482;54.396;18.590;2023-04-10T21:04:48;8.70;99.90
16728;DHT22;8482;54.396;18.590;2023-04-10T21:07:16;8.70;99.90
16728;DHT22;8482;54.396;18.590;2023-04-10T21:09:42;8.70;99.90
16728;DHT22;8482;54.396;18.590;2023-04-10T21:12:08;8.70;99.90
16728;DHT22;8482;54.396;18.590;2023-04-10T21:14:34;8.60;99.90
16728;DHT22;8482;54.396;18.590;2023-04-10T21:17:00;8.60;99.90
16728;DHT22;8482;54.396;18.590;2023-04-10T21:19:27;8.60;99.90
16728;DHT22;8482;54.396;18.590;2023-04-10T21:21:52;8.60;99.90
16728;DHT22;8482;54.396;18.590;2023-04-10T21:24:18;8.60;99.90
16728;DHT22;8482;54.396;18.590;2023-04-10T21:26:44;8.60;99.90
16728;DHT22;8482;54.396;18.590;2023-04-10T21:29:10;8.60;99.90
16728;DHT22;8482;54.396;18.590;2023-04-10T21:31:36;8.60;99.90
16728;DHT22;8482;54.396;18.590;2023-04-10T21:34:01;8.60;99.90
16728;DHT22;8482;54.396;18.590;2023-04-10T21:36:28;8.60;99.90
16728;DHT22;8482;54.396;18.590;2023-04-10T21:38:53;8.50;99.90
16728;DHT22;8482;54.396;18.590;2023-04-10T21:41:19;8.50;99.90
16728;DHT22;8482;54.396;18.590;2023-04-10T21:43:45;8.50;99.90
16728;DHT22;8482;54.396;18.590;2023-04-10T21:46:11;8.50;99.90
16728;DHT22;8482;54.396;18.590;2023-04-10T21:48:37;8.50;99.90
16728;DHT22;8482;54.396;18.590;2023-04-10T21:51:03;8.40;99.90
16728;DHT22;8482;54.396;18.590;2023-04-10T21:53:29;8.40;99.90
16728;DHT22;8482;54.396;18.590;2023-04-10T21:55:55;8.40;99.90
16728;DHT22;8482;54.396;18.590;2023-04-10T21:58:21;8.40;99.90
16728;DHT22;8482;54.396;18.590;2023-04-10T22:00:47;8.40;99.90
16728;DHT22;8482;54.396;18.590;2023-04-10T22:03:14;8.40;99.90
16728;DHT22;8482;54.396;18.590;2023-04-10T22:05:43;8.40;99.90
16728;DHT22;8482;54.396;18.590;2023-04-10T22:08:10;8.30;99.90
16728;DHT22;8482;54.396;18.590;2023-04-10T22:10:36;8.30;99.90
16728;DHT22;8482;54.396;18.590;2023-04-10T22:13:02;8.30;99.90
16728;DHT22;8482;54.396;18.590;2023-04-10T22:15:28;8.30;99.90
16728;DHT22;8482;54.396;18.590;2023-04-10T22:17:54;8.30;99.90
16728;DHT22;8482;54.396;18.590;2023-04-10T22:20:20;8.30;99.90
16728;DHT22;8482;54.396;18.590;2023-04-10T22:22:46;8.30;99.90
16728;DHT22;8482;54.396;18.590;2023-04-10T22:25:11;8.20;99.90
16728;DHT22;8482;54.396;18.590;2023-04-10T22:27:37;8.20;99.90
16728;DHT22;8482;54.396;18.590;2023-04-10T22:30:03;8.20;99.90
16728;DHT22;8482;54.396;18.590;2023-04-10T22:32:30;8.20;99.90
16728;DHT22;8482;54.396;18.590;2023-04-10T22:35:00;8.20;99.90
16728;DHT22;8482;54.396;18.590;2023-04-10T22:37:26;8.20;99.90
16728;DHT22;8482;54.396;18.590;2023-04-10T22:39:52;8.20;99.90
16728;DHT22;8482;54.396;18.590;2023-04-10T22:42:20;8.10;99.90
16728;DHT22;8482;54.396;18.590;2023-04-10T22:44:46;8.10;99.90
16728;DHT22;8482;54.396;18.590;2023-04-10T22:47:12;8.10;99.90
16728;DHT22;8482;54.396;18.590;2023-04-10T22:49:37;8.10;99.90
16728;DHT22;8482;54.396;18.590;2023-04-10T22:52:03;8.10;99.90
16728;DHT22;8482;54.396;18.590;2023-04-10T22:54:29;8.10;99.90
16728;DHT22;8482;54.396;18.590;2023-04-10T22:56:56;8.00;99.90
16728;DHT22;8482;54.396;18.590;2023-04-10T22:59:22;8.00;99.90
16728;DHT22;8482;54.396;18.590;2023-04-10T23:01:48;8.00;99.90
16728;DHT22;8482;54.396;18.590;2023-04-10T23:04:13;8.00;99.90
16728;DHT22;8482;54.396;18.590;2023-04-10T23:06:40;7.90;99.90
16728;DHT22;8482;54.396;18.590;2023-04-10T23:09:05;7.90;99.90
16728;DHT22;8482;54.396;18.590;2023-04-10T23:11:31;7.90;99.90
16728;DHT22;8482;54.396;18.590;2023-04-10T23:13:57;7.90;99.90
16728;DHT22;8482;54.396;18.590;2023-04-10T23:16:23;7.80;99.90
16728;DHT22;8482;54.396;18.590;2023-04-10T23:18:49;7.80;99.90
16728;DHT22;8482;54.396;18.590;2023-04-10T23:21:15;7.80;99.90
16728;DHT22;8482;54.396;18.590;2023-04-10T23:23:41;7.80;99.90
16728;DHT22;8482;54.396;18.590;2023-04-10T23:26:07;7.80;99.90
16728;DHT22;8482;54.396;18.590;2023-04-10T23:28:33;7.80;99.90
16728;DHT22;8482;54.396;18.590;2023-04-10T23:30:58;7.80;99.90
16728;DHT22;8482;54.396;18.590;2023-04-10T23:33:24;7.80;99.90
16728;DHT22;8482;54.396;18.590;2023-04-10T23:35:50;7.70;99.90
16728;DHT22;8482;54.396;18.590;2023-04-10T23:38:16;7.80;99.90
16728;DHT22;8482;54.396;18.590;2023-04-10T23:40:42;7.80;99.90
16728;DHT22;8482;54.396;18.590;2023-04-10T23:43:08;7.90;99.90
16728;DHT22;8482;54.396;18.590;2023-04-10T23:45:33;7.90;99.90
16728;DHT22;8482;54.396;18.590;2023-04-10T23:47:59;7.90;99.90
16728;DHT22;8482;54.396;18.590;2023-04-10T23:50:25;7.90;99.90
16728;DHT22;8482;54.396;18.590;2023-04-10T23:52:52;7.90;99.90
16728;DHT22;8482;54.396;18.590;2023-04-10T23:55:18;7.80;99.90
16728;DHT22;8482;54.396;18.590;2023-04-10T23:57:44;7.80;99.90
